This is the latest recevied weather packets stored in our database for station/object OK1FPA-15. If no packets are shown the sender has not sent any weather packets the latest 10 day(s).
| Time | Temp. | Humidity | Pressure | Rain* | Wind** | Luminosity | Snow |
|---|---|---|---|---|---|---|---|
| 1777567047 | 16.67° C | 32% | 1029.2 hPa | - | - | - | - |
| 1777566447 | 16.67° C | 31% | 1029.3 hPa | - | - | - | - |
| 1777565847 | 16.11° C | 32% | 1029.4 hPa | - | - | - | - |
| 1777565247 | 15.56° C | 33% | 1029.5 hPa | - | - | - | - |
| 1777564647 | 16.11° C | 32% | 1029.4 hPa | - | - | - | - |
| 1777564047 | 16.11° C | 32% | 1029.4 hPa | - | - | - | - |
| 1777563447 | 15.56° C | 32% | 1029.6 hPa | - | - | - | - |
| 1777562847 | 16.11° C | 32% | 1029.7 hPa | - | - | - | - |
| 1777562247 | 16.67° C | 31% | 1029.6 hPa | - | - | - | - |
| 1777561647 | 16.11° C | 32% | 1029.7 hPa | - | - | - | - |
| 1777561047 | 16.11° C | 31% | 1029.7 hPa | - | - | - | - |
| 1777560447 | 15.56° C | 31% | 1030 hPa | - | - | - | - |
| 1777559847 | 15.56° C | 32% | 1030 hPa | - | - | - | - |
| 1777559247 | 15.56° C | 32% | 1030 hPa | - | - | - | - |
| 1777558647 | 15.56° C | 30% | 1030.1 hPa | - | - | - | - |
| 1777558047 | 15.56° C | 31% | 1030.3 hPa | - | - | - | - |
| 1777557447 | 15° C | 31% | 1030.4 hPa | - | - | - | - |
| 1777556847 | 15° C | 31% | 1030.5 hPa | - | - | - | - |
| 1777556247 | 15° C | 31% | 1030.5 hPa | - | - | - | - |
| 1777555647 | 15° C | 30% | 1030.5 hPa | - | - | - | - |
| 1777555047 | 15° C | 30% | 1030.7 hPa | - | - | - | - |
| 1777554447 | 15° C | 30% | 1030.7 hPa | - | - | - | - |
| 1777553847 | 15° C | 30% | 1030.8 hPa | - | - | - | - |
| 1777553247 | 14.44° C | 29% | 1031 hPa | - | - | - | - |
| 1777552647 | 15° C | 29% | 1031 hPa | - | - | - | - |
* Rain since midnight (hover to see other rain measurements)
** Current wind speed in m/s (hover to see current wind gust speed)